Silver Lake, KS (66539)

3:34 AM CDT on May 06, 2015 (GMT -0500)
62nd St | | Change Station
CLOSE
Current Station
Personal Weather Station
Location: Rossville, KS
Elevation: 1033 ft
Nearby Weather Stations

Elev 1033 ft 39.16 °N, 95.94 °W | Updated 23 seconds ago

Rain
Rain
63.7 °F
Feels Like 63.7 °F
N
13.2
Wind Variable Wind from SE
Gusts 19.2 mph

Today
High -- | Low -- °F
--% Chance of Precip.
Yesterday
High -- | Low -- °F
Precip. -- in
6:19 AM 8:21 PM
Waning Gibbous, 95% visible
Pressure 29.91 in
Visibility 10.0 miles
Clouds Overcast 10000 ft
Dew Point 62 °F
Humidity 94%
Rainfall 0.02 in
Snow Depth Not available.
UV 0 out of 12
Pollen 7.90 out of 12
Air Quality Not available.
Flu Activity Sporadic
METAR KTOP 060753Z AUTO 13007KT 10SM -RA OVC100 18/17 A2993 RMK AO2 RAB32 SLP127 P0000 T01830167

More Conditions Fewer Conditions

Pressure 29.91 in
Visibility 10.0 miles
Clouds Overcast 10000 ft
Dew Point 62 °F
Humidity 94%
Rainfall 0.02 in
Snow Depth Not available.
UV 0 out of 12
Pollen 7.90 out of 12
Air Quality Not available.
Flu Activity Sporadic
METAR KTOP 060753Z AUTO 13007KT 10SM -RA OVC100 18/17 A2993 RMK AO2 RAB32 SLP127 P0000 T01830167

More Conditions Fewer Conditions

10-Day Weather Forecast

Almanac

Astronomy

May. 06, 2015 Rise Set
Actual Time
Civil Twilight
Nautical Twilight
Astronomical Twilight
Moon
Length of Visible Light
Length of Day
Tomorrow will be .
, % of the Moon is Illuminated

Today's Extremes

State Highs State Lows

Community

WunderPhotos

Upload Photos

1,818,853 photos uploaded!

WunderBlogs® & News

Nearby

Air Quality

  Air Quality AQ Index Pollutant
Not available.

Snow Depth

Station Depth Elevation

Earthquake Activity

City Distance Mag. Time & Date
Minimum magnitude displayed is 2.5.

Coastal Water Temperatures

Place Temperature

Stations

Nearby Weather Stations

Station Location Temp. Windchill Dew Point Humidity Wind Precip. Elev Updated Type